sensor_id;sensor_type;location;lat;lon;timestamp;P1;durP1;ratioP1;P2;durP2;ratioP2
57615;SDS011;43816;52.054;-9.494;2023-12-04T00:00:10;16.17;;;15.07;;
57615;SDS011;43816;52.054;-9.494;2023-12-04T00:00:20;15.93;;;14.82;;
57615;SDS011;43816;52.054;-9.494;2023-12-04T00:00:31;16.33;;;15.13;;
57615;SDS011;43816;52.054;-9.494;2023-12-04T00:00:41;15.70;;;14.60;;
57615;SDS011;43816;52.054;-9.494;2023-12-04T00:00:51;15.88;;;14.68;;
57615;SDS011;43816;52.054;-9.494;2023-12-04T00:01:02;15.67;;;14.57;;
57615;SDS011;43816;52.054;-9.494;2023-12-04T00:01:12;15.93;;;14.82;;
57615;SDS011;43816;52.054;-9.494;2023-12-04T00:01:23;16.23;;;15.13;;
57615;SDS011;43816;52.054;-9.494;2023-12-04T00:01:33;16.27;;;15.18;;
57615;SDS011;43816;52.054;-9.494;2023-12-04T00:01:44;16.43;;;15.23;;
57615;SDS011;43816;52.054;-9.494;2023-12-04T00:01:55;16.35;;;15.13;;
57615;SDS011;43816;52.054;-9.494;2023-12-04T00:02:05;16.70;;;15.50;;
57615;SDS011;43816;52.054;-9.494;2023-12-04T00:02:15;16.63;;;15.47;;
57615;SDS011;43816;52.054;-9.494;2023-12-04T00:02:25;16.87;;;15.77;;
57615;SDS011;43816;52.054;-9.494;2023-12-04T00:02:36;16.97;;;15.83;;
57615;SDS011;43816;52.054;-9.494;2023-12-04T00:02:46;17.25;;;16.05;;
57615;SDS011;43816;52.054;-9.494;2023-12-04T00:02:56;17.23;;;16.03;;
57615;SDS011;43816;52.054;-9.494;2023-12-04T00:03:06;17.17;;;15.90;;
57615;SDS011;43816;52.054;-9.494;2023-12-04T00:03:17;17.08;;;15.88;;
57615;SDS011;43816;52.054;-9.494;2023-12-04T00:03:27;17.03;;;15.83;;
57615;SDS011;43816;52.054;-9.494;2023-12-04T00:03:37;16.97;;;15.77;;
57615;SDS011;43816;52.054;-9.494;2023-12-04T00:03:48;16.73;;;15.43;;
57615;SDS011;43816;52.054;-9.494;2023-12-04T00:03:58;16.70;;;15.40;;
57615;SDS011;43816;52.054;-9.494;2023-12-04T00:04:08;17.17;;;15.90;;
57615;SDS011;43816;52.054;-9.494;2023-12-04T00:04:18;17.17;;;15.97;;
57615;SDS011;43816;52.054;-9.494;2023-12-04T00:04:29;17.23;;;15.97;;
57615;SDS011;43816;52.054;-9.494;2023-12-04T00:04:39;16.50;;;15.30;;
57615;SDS011;43816;52.054;-9.494;2023-12-04T00:04:49;16.03;;;14.93;;
57615;SDS011;43816;52.054;-9.494;2023-12-04T00:04:59;15.45;;;14.45;;
57615;SDS011;43816;52.054;-9.494;2023-12-04T00:05:10;15.53;;;14.50;;
57615;SDS011;43816;52.054;-9.494;2023-12-04T00:05:20;15.63;;;14.57;;
57615;SDS011;43816;52.054;-9.494;2023-12-04T00:05:30;16.17;;;14.98;;
57615;SDS011;43816;52.054;-9.494;2023-12-04T00:05:43;16.27;;;15.07;;
57615;SDS011;43816;52.054;-9.494;2023-12-04T00:05:54;16.40;;;15.20;;
57615;SDS011;43816;52.054;-9.494;2023-12-04T00:06:04;16.13;;;15.03;;
57615;SDS011;43816;52.054;-9.494;2023-12-04T00:06:15;16.27;;;15.18;;
57615;SDS011;43816;52.054;-9.494;2023-12-04T00:06:25;16.40;;;15.20;;
57615;SDS011;43816;52.054;-9.494;2023-12-04T00:06:35;16.42;;;15.25;;
57615;SDS011;43816;52.054;-9.494;2023-12-04T00:06:45;16.57;;;15.47;;
57615;SDS011;43816;52.054;-9.494;2023-12-04T00:06:56;16.40;;;15.30;;
57615;SDS011;43816;52.054;-9.494;2023-12-04T00:07:06;16.08;;;15.00;;
57615;SDS011;43816;52.054;-9.494;2023-12-04T00:07:16;16.07;;;15.00;;
57615;SDS011;43816;52.054;-9.494;2023-12-04T00:07:26;16.23;;;15.13;;
57615;SDS011;43816;52.054;-9.494;2023-12-04T00:07:37;16.48;;;15.38;;
57615;SDS011;43816;52.054;-9.494;2023-12-04T00:07:47;16.07;;;14.97;;
57615;SDS011;43816;52.054;-9.494;2023-12-04T00:07:58;15.80;;;14.67;;
57615;SDS011;43816;52.054;-9.494;2023-12-04T00:08:08;15.10;;;14.07;;
57615;SDS011;43816;52.054;-9.494;2023-12-04T00:08:18;15.20;;;14.20;;
57615;SDS011;43816;52.054;-9.494;2023-12-04T00:08:29;15.35;;;14.35;;
57615;SDS011;43816;52.054;-9.494;2023-12-04T00:08:39;15.70;;;14.70;;
57615;SDS011;43816;52.054;-9.494;2023-12-04T00:08:50;16.08;;;14.98;;
57615;SDS011;43816;52.054;-9.494;2023-12-04T00:09:00;16.05;;;14.95;;
57615;SDS011;43816;52.054;-9.494;2023-12-04T00:09:11;15.97;;;14.87;;
57615;SDS011;43816;52.054;-9.494;2023-12-04T00:09:22;15.70;;;14.70;;
57615;SDS011;43816;52.054;-9.494;2023-12-04T00:09:32;15.87;;;14.87;;
57615;SDS011;43816;52.054;-9.494;2023-12-04T00:09:42;15.73;;;14.73;;
57615;SDS011;43816;52.054;-9.494;2023-12-04T00:09:52;15.70;;;14.68;;
57615;SDS011;43816;52.054;-9.494;2023-12-04T00:10:03;15.60;;;14.50;;
57615;SDS011;43816;52.054;-9.494;2023-12-04T00:10:13;15.23;;;14.13;;
57615;SDS011;43816;52.054;-9.494;2023-12-04T00:10:24;15.37;;;14.30;;
57615;SDS011;43816;52.054;-9.494;2023-12-04T00:10:34;15.43;;;14.37;;
57615;SDS011;43816;52.054;-9.494;2023-12-04T00:10:44;15.50;;;14.48;;
57615;SDS011;43816;52.054;-9.494;2023-12-04T00:10:54;15.30;;;14.30;;
57615;SDS011;43816;52.054;-9.494;2023-12-04T00:11:05;15.37;;;14.37;;
57615;SDS011;43816;52.054;-9.494;2023-12-04T00:11:16;15.75;;;14.68;;
57615;SDS011;43816;52.054;-9.494;2023-12-04T00:11:26;15.60;;;14.60;;
57615;SDS011;43816;52.054;-9.494;2023-12-04T00:11:36;15.63;;;14.63;;
57615;SDS011;43816;52.054;-9.494;2023-12-04T00:11:47;15.50;;;14.50;;
57615;SDS011;43816;52.054;-9.494;2023-12-04T00:11:57;15.48;;;14.48;;
57615;SDS011;43816;52.054;-9.494;2023-12-04T00:12:07;15.37;;;14.37;;
57615;SDS011;43816;52.054;-9.494;2023-12-04T00:12:18;15.23;;;14.23;;
57615;SDS011;43816;52.054;-9.494;2023-12-04T00:12:28;15.40;;;14.40;;
57615;SDS011;43816;52.054;-9.494;2023-12-04T00:12:38;14.97;;;13.97;;
57615;SDS011;43816;52.054;-9.494;2023-12-04T00:12:49;14.87;;;13.87;;
57615;SDS011;43816;52.054;-9.494;2023-12-04T00:12:59;14.32;;;13.38;;
57615;SDS011;43816;52.054;-9.494;2023-12-04T00:13:09;14.30;;;13.40;;
57615;SDS011;43816;52.054;-9.494;2023-12-04T00:13:20;14.17;;;13.27;;
57615;SDS011;43816;52.054;-9.494;2023-12-04T00:13:30;14.07;;;13.17;;
57615;SDS011;43816;52.054;-9.494;2023-12-04T00:13:40;14.40;;;13.40;;
57615;SDS011;43816;52.054;-9.494;2023-12-04T00:13:51;14.50;;;13.50;;
57615;SDS011;43816;52.054;-9.494;2023-12-04T00:14:01;14.87;;;13.87;;
57615;SDS011;43816;52.054;-9.494;2023-12-04T00:14:11;14.90;;;13.90;;
57615;SDS011;43816;52.054;-9.494;2023-12-04T00:14:21;15.00;;;14.00;;
57615;SDS011;43816;52.054;-9.494;2023-12-04T00:14:32;14.43;;;13.50;;
57615;SDS011;43816;52.054;-9.494;2023-12-04T00:14:42;14.37;;;13.47;;
57615;SDS011;43816;52.054;-9.494;2023-12-04T00:14:52;14.25;;;13.35;;
57615;SDS011;43816;52.054;-9.494;2023-12-04T00:15:03;14.67;;;13.70;;
57615;SDS011;43816;52.054;-9.494;2023-12-04T00:15:13;14.95;;;13.95;;
57615;SDS011;43816;52.054;-9.494;2023-12-04T00:15:23;14.97;;;13.97;;
57615;SDS011;43816;52.054;-9.494;2023-12-04T00:15:34;14.73;;;13.83;;
57615;SDS011;43816;52.054;-9.494;2023-12-04T00:15:44;14.35;;;13.45;;
57615;SDS011;43816;52.054;-9.494;2023-12-04T00:15:54;14.20;;;13.30;;
57615;SDS011;43816;52.054;-9.494;2023-12-04T00:16:05;14.27;;;13.37;;
57615;SDS011;43816;52.054;-9.494;2023-12-04T00:16:15;14.55;;;13.65;;
57615;SDS011;43816;52.054;-9.494;2023-12-04T00:16:26;14.73;;;13.80;;
57615;SDS011;43816;52.054;-9.494;2023-12-04T00:16:36;14.82;;;13.90;;
57615;SDS011;43816;52.054;-9.494;2023-12-04T00:16:47;14.47;;;13.57;;
57615;SDS011;43816;52.054;-9.494;2023-12-04T00:16:57;14.30;;;13.40;;
57615;SDS011;43816;52.054;-9.494;2023-12-04T00:17:07;13.97;;;13.07;;
57615;SDS011;43816;52.054;-9.494;2023-12-04T00:17:17;14.23;;;13.33;;
57615;SDS011;43816;52.054;-9.494;2023-12-04T00:17:28;14.10;;;13.20;;
57615;SDS011;43816;52.054;-9.494;2023-12-04T00:17:38;13.93;;;13.03;;
57615;SDS011;43816;52.054;-9.494;2023-12-04T00:17:48;13.70;;;12.80;;
57615;SDS011;43816;52.054;-9.494;2023-12-04T00:17:59;13.63;;;12.73;;
57615;SDS011;43816;52.054;-9.494;2023-12-04T00:18:09;13.93;;;13.03;;
57615;SDS011;43816;52.054;-9.494;2023-12-04T00:18:19;14.13;;;13.23;;
57615;SDS011;43816;52.054;-9.494;2023-12-04T00:18:29;14.38;;;13.40;;
57615;SDS011;43816;52.054;-9.494;2023-12-04T00:18:40;14.10;;;13.17;;
57615;SDS011;43816;52.054;-9.494;2023-12-04T00:18:50;14.13;;;13.23;;
57615;SDS011;43816;52.054;-9.494;2023-12-04T00:19:00;14.20;;;13.30;;
57615;SDS011;43816;52.054;-9.494;2023-12-04T00:19:11;14.20;;;13.30;;
57615;SDS011;43816;52.054;-9.494;2023-12-04T00:19:21;14.07;;;13.17;;
57615;SDS011;43816;52.054;-9.494;2023-12-04T00:19:31;13.80;;;12.90;;
57615;SDS011;43816;52.054;-9.494;2023-12-04T00:19:41;13.88;;;12.98;;
57615;SDS011;43816;52.054;-9.494;2023-12-04T00:19:52;14.13;;;13.23;;
57615;SDS011;43816;52.054;-9.494;2023-12-04T00:20:02;14.43;;;13.43;;
57615;SDS011;43816;52.054;-9.494;2023-12-04T00:20:12;14.38;;;13.45;;
57615;SDS011;43816;52.054;-9.494;2023-12-04T00:20:23;14.53;;;13.63;;
57615;SDS011;43816;52.054;-9.494;2023-12-04T00:20:33;14.60;;;13.70;;
57615;SDS011;43816;52.054;-9.494;2023-12-04T00:20:43;14.50;;;13.60;;
57615;SDS011;43816;52.054;-9.494;2023-12-04T00:20:53;13.73;;;12.93;;
57615;SDS011;43816;52.054;-9.494;2023-12-04T00:21:04;13.50;;;12.70;;
57615;SDS011;43816;52.054;-9.494;2023-12-04T00:21:14;13.43;;;12.63;;
57615;SDS011;43816;52.054;-9.494;2023-12-04T00:21:25;13.70;;;12.90;;
57615;SDS011;43816;52.054;-9.494;2023-12-04T00:21:35;13.75;;;12.85;;
57615;SDS011;43816;52.054;-9.494;2023-12-04T00:21:45;13.83;;;12.97;;
57615;SDS011;43816;52.054;-9.494;2023-12-04T00:21:55;13.83;;;13.00;;
57615;SDS011;43816;52.054;-9.494;2023-12-04T00:22:06;14.02;;;13.15;;
57615;SDS011;43816;52.054;-9.494;2023-12-04T00:22:16;14.00;;;13.10;;
57615;SDS011;43816;52.054;-9.494;2023-12-04T00:22:26;13.77;;;12.97;;
57615;SDS011;43816;52.054;-9.494;2023-12-04T00:22:37;13.63;;;12.73;;
57615;SDS011;43816;52.054;-9.494;2023-12-04T00:22:47;13.80;;;12.90;;
57615;SDS011;43816;52.054;-9.494;2023-12-04T00:22:58;14.13;;;13.15;;
57615;SDS011;43816;52.054;-9.494;2023-12-04T00:23:08;13.93;;;13.03;;
57615;SDS011;43816;52.054;-9.494;2023-12-04T00:23:18;13.43;;;12.63;;
57615;SDS011;43816;52.054;-9.494;2023-12-04T00:23:28;13.20;;;12.40;;
57615;SDS011;43816;52.054;-9.494;2023-12-04T00:23:39;13.33;;;12.53;;
57615;SDS011;43816;52.054;-9.494;2023-12-04T00:23:49;13.57;;;12.77;;
57615;SDS011;43816;52.054;-9.494;2023-12-04T00:23:59;13.90;;;13.07;;
57615;SDS011;43816;52.054;-9.494;2023-12-04T00:24:09;13.88;;;13.05;;
57615;SDS011;43816;52.054;-9.494;2023-12-04T00:24:20;13.90;;;13.00;;
57615;SDS011;43816;52.054;-9.494;2023-12-04T00:24:30;13.37;;;12.53;;
57615;SDS011;43816;52.054;-9.494;2023-12-04T00:24:40;13.30;;;12.50;;
57615;SDS011;43816;52.054;-9.494;2023-12-04T00:24:50;13.47;;;12.67;;
57615;SDS011;43816;52.054;-9.494;2023-12-04T00:25:01;13.40;;;12.60;;
57615;SDS011;43816;52.054;-9.494;2023-12-04T00:25:12;13.50;;;12.70;;
57615;SDS011;43816;52.054;-9.494;2023-12-04T00:25:22;13.38;;;12.57;;
57615;SDS011;43816;52.054;-9.494;2023-12-04T00:25:32;13.47;;;12.67;;
57615;SDS011;43816;52.054;-9.494;2023-12-04T00:25:43;13.23;;;12.37;;
57615;SDS011;43816;52.054;-9.494;2023-12-04T00:25:54;13.50;;;12.60;;
57615;SDS011;43816;52.054;-9.494;2023-12-04T00:26:05;13.63;;;12.73;;
57615;SDS011;43816;52.054;-9.494;2023-12-04T00:26:15;13.75;;;12.85;;
57615;SDS011;43816;52.054;-9.494;2023-12-04T00:26:26;13.37;;;12.47;;
57615;SDS011;43816;52.054;-9.494;2023-12-04T00:26:36;13.35;;;12.45;;
57615;SDS011;43816;52.054;-9.494;2023-12-04T00:26:46;13.20;;;12.30;;
57615;SDS011;43816;52.054;-9.494;2023-12-04T00:26:56;13.30;;;12.40;;
57615;SDS011;43816;52.054;-9.494;2023-12-04T00:27:07;13.32;;;12.43;;
57615;SDS011;43816;52.054;-9.494;2023-12-04T00:27:17;13.20;;;12.40;;
57615;SDS011;43816;52.054;-9.494;2023-12-04T00:27:27;13.10;;;12.30;;
57615;SDS011;43816;52.054;-9.494;2023-12-04T00:27:37;12.90;;;12.10;;
57615;SDS011;43816;52.054;-9.494;2023-12-04T00:27:48;13.13;;;12.33;;
57615;SDS011;43816;52.054;-9.494;2023-12-04T00:27:58;13.30;;;12.50;;
57615;SDS011;43816;52.054;-9.494;2023-12-04T00:28:08;13.47;;;12.67;;
57615;SDS011;43816;52.054;-9.494;2023-12-04T00:28:19;13.40;;;12.60;;
57615;SDS011;43816;52.054;-9.494;2023-12-04T00:28:29;13.20;;;12.40;;
57615;SDS011;43816;52.054;-9.494;2023-12-04T00:28:39;13.32;;;12.52;;
57615;SDS011;43816;52.054;-9.494;2023-12-04T00:28:50;13.70;;;12.83;;
57615;SDS011;43816;52.054;-9.494;2023-12-04T00:29:00;13.60;;;12.80;;
57615;SDS011;43816;52.054;-9.494;2023-12-04T00:29:10;13.45;;;12.65;;
57615;SDS011;43816;52.054;-9.494;2023-12-04T00:29:20;13.10;;;12.37;;
57615;SDS011;43816;52.054;-9.494;2023-12-04T00:29:31;13.37;;;12.57;;
57615;SDS011;43816;52.054;-9.494;2023-12-04T00:29:41;13.07;;;12.27;;
57615;SDS011;43816;52.054;-9.494;2023-12-04T00:29:51;12.80;;;12.00;;
57615;SDS011;43816;52.054;-9.494;2023-12-04T00:30:02;12.33;;;11.63;;
57615;SDS011;43816;52.054;-9.494;2023-12-04T00:30:12;12.40;;;11.70;;
57615;SDS011;43816;52.054;-9.494;2023-12-04T00:30:22;12.70;;;12.00;;
57615;SDS011;43816;52.054;-9.494;2023-12-04T00:30:33;13.00;;;12.20;;
57615;SDS011;43816;52.054;-9.494;2023-12-04T00:30:43;12.82;;;12.02;;
57615;SDS011;43816;52.054;-9.494;2023-12-04T00:30:53;12.73;;;11.93;;
57615;SDS011;43816;52.054;-9.494;2023-12-04T00:31:04;12.97;;;12.17;;
57615;SDS011;43816;52.054;-9.494;2023-12-04T00:31:14;13.27;;;12.48;;
57615;SDS011;43816;52.054;-9.494;2023-12-04T00:31:24;13.37;;;12.57;;
57615;SDS011;43816;52.054;-9.494;2023-12-04T00:31:35;13.32;;;12.52;;
57615;SDS011;43816;52.054;-9.494;2023-12-04T00:31:45;13.13;;;12.37;;
57615;SDS011;43816;52.054;-9.494;2023-12-04T00:31:55;12.63;;;11.93;;
57615;SDS011;43816;52.054;-9.494;2023-12-04T00:32:05;12.33;;;11.63;;
57615;SDS011;43816;52.054;-9.494;2023-12-04T00:32:16;12.57;;;11.83;;
57615;SDS011;43816;52.054;-9.494;2023-12-04T00:32:26;12.77;;;11.97;;
57615;SDS011;43816;52.054;-9.494;2023-12-04T00:32:36;12.77;;;11.97;;
57615;SDS011;43816;52.054;-9.494;2023-12-04T00:32:46;12.73;;;11.93;;
57615;SDS011;43816;52.054;-9.494;2023-12-04T00:32:57;13.03;;;12.23;;
57615;SDS011;43816;52.054;-9.494;2023-12-04T00:33:07;13.10;;;12.30;;
57615;SDS011;43816;52.054;-9.494;2023-12-04T00:33:17;13.00;;;12.20;;
57615;SDS011;43816;52.054;-9.494;2023-12-04T00:33:28;12.87;;;12.07;;
57615;SDS011;43816;52.054;-9.494;2023-12-04T00:33:38;12.87;;;12.07;;
57615;SDS011;43816;52.054;-9.494;2023-12-04T00:33:48;13.15;;;12.32;;
57615;SDS011;43816;52.054;-9.494;2023-12-04T00:33:58;13.50;;;12.60;;
57615;SDS011;43816;52.054;-9.494;2023-12-04T00:34:09;13.40;;;12.60;;
57615;SDS011;43816;52.054;-9.494;2023-12-04T00:34:19;13.30;;;12.50;;
57615;SDS011;43816;52.054;-9.494;2023-12-04T00:34:29;12.80;;;12.00;;
57615;SDS011;43816;52.054;-9.494;2023-12-04T00:34:39;12.73;;;11.93;;
57615;SDS011;43816;52.054;-9.494;2023-12-04T00:34:50;12.80;;;12.00;;
57615;SDS011;43816;52.054;-9.494;2023-12-04T00:35:03;12.63;;;11.82;;
57615;SDS011;43816;52.054;-9.494;2023-12-04T00:35:20;12.23;;;11.53;;
57615;SDS011;43816;52.054;-9.494;2023-12-04T00:35:30;12.40;;;11.63;;
57615;SDS011;43816;52.054;-9.494;2023-12-04T00:35:41;12.77;;;11.98;;
57615;SDS011;43816;52.054;-9.494;2023-12-04T00:35:51;13.10;;;12.30;;
57615;SDS011;43816;52.054;-9.494;2023-12-04T00:36:01;13.20;;;12.40;;
57615;SDS011;43816;52.054;-9.494;2023-12-04T00:36:12;12.88;;;12.07;;
57615;SDS011;43816;52.054;-9.494;2023-12-04T00:36:22;12.77;;;11.97;;
57615;SDS011;43816;52.054;-9.494;2023-12-04T00:36:32;12.30;;;11.50;;
57615;SDS011;43816;52.054;-9.494;2023-12-04T00:36:43;12.30;;;11.50;;
57615;SDS011;43816;52.054;-9.494;2023-12-04T00:36:53;12.10;;;11.40;;
57615;SDS011;43816;52.054;-9.494;2023-12-04T00:37:03;12.37;;;11.67;;
57615;SDS011;43816;52.054;-9.494;2023-12-04T00:37:13;12.30;;;11.60;;
57615;SDS011;43816;52.054;-9.494;2023-12-04T00:37:25;12.10;;;11.40;;
57615;SDS011;43816;52.054;-9.494;2023-12-04T00:37:36;12.15;;;11.45;;
57615;SDS011;43816;52.054;-9.494;2023-12-04T00:37:46;12.35;;;11.65;;
57615;SDS011;43816;52.054;-9.494;2023-12-04T00:37:57;12.67;;;11.87;;
57615;SDS011;43816;52.054;-9.494;2023-12-04T00:38:07;12.33;;;11.63;;
57615;SDS011;43816;52.054;-9.494;2023-12-04T00:38:17;12.13;;;11.43;;
57615;SDS011;43816;52.054;-9.494;2023-12-04T00:38:27;12.43;;;11.67;;
57615;SDS011;43816;52.054;-9.494;2023-12-04T00:38:38;12.40;;;11.63;;
57615;SDS011;43816;52.054;-9.494;2023-12-04T00:38:48;12.60;;;11.90;;
57615;SDS011;43816;52.054;-9.494;2023-12-04T00:38:58;12.23;;;11.52;;
57615;SDS011;43816;52.054;-9.494;2023-12-04T00:39:08;12.43;;;11.73;;
57615;SDS011;43816;52.054;-9.494;2023-12-04T00:39:19;12.43;;;11.73;;
57615;SDS011;43816;52.054;-9.494;2023-12-04T00:39:29;12.60;;;11.80;;
57615;SDS011;43816;52.054;-9.494;2023-12-04T00:39:39;12.20;;;11.50;;
57615;SDS011;43816;52.054;-9.494;2023-12-04T00:39:49;12.40;;;11.60;;
57615;SDS011;43816;52.054;-9.494;2023-12-04T00:40:00;12.15;;;11.35;;
57615;SDS011;43816;52.054;-9.494;2023-12-04T00:40:10;11.93;;;11.17;;
57615;SDS011;43816;52.054;-9.494;2023-12-04T00:40:20;11.60;;;10.90;;
57615;SDS011;43816;52.054;-9.494;2023-12-04T00:40:31;11.95;;;11.25;;
57615;SDS011;43816;52.054;-9.494;2023-12-04T00:40:41;12.17;;;11.47;;
57615;SDS011;43816;52.054;-9.494;2023-12-04T00:40:51;12.57;;;11.87;;
57615;SDS011;43816;52.054;-9.494;2023-12-04T00:41:01;12.83;;;12.03;;
57615;SDS011;43816;52.054;-9.494;2023-12-04T00:41:12;12.93;;;12.13;;
57615;SDS011;43816;52.054;-9.494;2023-12-04T00:41:22;12.67;;;11.87;;
57615;SDS011;43816;52.054;-9.494;2023-12-04T00:41:32;12.40;;;11.70;;
57615;SDS011;43816;52.054;-9.494;2023-12-04T00:41:42;12.63;;;11.88;;
57615;SDS011;43816;52.054;-9.494;2023-12-04T00:41:53;12.90;;;12.10;;
57615;SDS011;43816;52.054;-9.494;2023-12-04T00:42:03;12.93;;;12.13;;
57615;SDS011;43816;52.054;-9.494;2023-12-04T00:42:14;12.60;;;11.88;;
57615;SDS011;43816;52.054;-9.494;2023-12-04T00:42:24;12.35;;;11.65;;
57615;SDS011;43816;52.054;-9.494;2023-12-04T00:42:35;12.17;;;11.47;;
57615;SDS011;43816;52.054;-9.494;2023-12-04T00:42:45;12.13;;;11.43;;
57615;SDS011;43816;52.054;-9.494;2023-12-04T00:42:55;12.38;;;11.68;;
57615;SDS011;43816;52.054;-9.494;2023-12-04T00:43:05;12.80;;;12.00;;
57615;SDS011;43816;52.054;-9.494;2023-12-04T00:43:16;12.93;;;12.13;;
57615;SDS011;43816;52.054;-9.494;2023-12-04T00:43:26;12.83;;;12.10;;
57615;SDS011;43816;52.054;-9.494;2023-12-04T00:43:36;12.73;;;12.03;;
57615;SDS011;43816;52.054;-9.494;2023-12-04T00:43:47;13.00;;;12.20;;
57615;SDS011;43816;52.054;-9.494;2023-12-04T00:43:57;13.25;;;12.43;;
57615;SDS011;43816;52.054;-9.494;2023-12-04T00:44:08;13.30;;;12.47;;
57615;SDS011;43816;52.054;-9.494;2023-12-04T00:44:18;12.90;;;12.10;;
57615;SDS011;43816;52.054;-9.494;2023-12-04T00:44:28;12.70;;;12.00;;
57615;SDS011;43816;52.054;-9.494;2023-12-04T00:44:39;12.53;;;11.83;;
57615;SDS011;43816;52.054;-9.494;2023-12-04T00:44:49;12.68;;;11.88;;
57615;SDS011;43816;52.054;-9.494;2023-12-04T00:44:59;12.53;;;11.77;;
57615;SDS011;43816;52.054;-9.494;2023-12-04T00:45:09;12.40;;;11.70;;
57615;SDS011;43816;52.054;-9.494;2023-12-04T00:45:20;12.52;;;11.75;;
57615;SDS011;43816;52.054;-9.494;2023-12-04T00:45:30;12.30;;;11.50;;
57615;SDS011;43816;52.054;-9.494;2023-12-04T00:45:40;12.23;;;11.43;;
57615;SDS011;43816;52.054;-9.494;2023-12-04T00:45:51;12.02;;;11.32;;
57615;SDS011;43816;52.054;-9.494;2023-12-04T00:46:01;12.23;;;11.53;;
57615;SDS011;43816;52.054;-9.494;2023-12-04T00:46:11;12.70;;;12.00;;
57615;SDS011;43816;52.054;-9.494;2023-12-04T00:46:21;12.50;;;11.80;;
57615;SDS011;43816;52.054;-9.494;2023-12-04T00:46:32;12.30;;;11.60;;
57615;SDS011;43816;52.054;-9.494;2023-12-04T00:46:42;12.07;;;11.37;;
57615;SDS011;43816;52.054;-9.494;2023-12-04T00:46:52;12.27;;;11.57;;
57615;SDS011;43816;52.054;-9.494;2023-12-04T00:47:03;12.50;;;11.80;;
57615;SDS011;43816;52.054;-9.494;2023-12-04T00:47:13;12.47;;;11.77;;
57615;SDS011;43816;52.054;-9.494;2023-12-04T00:47:23;12.38;;;11.68;;
57615;SDS011;43816;52.054;-9.494;2023-12-04T00:47:33;12.40;;;11.70;;
57615;SDS011;43816;52.054;-9.494;2023-12-04T00:47:44;12.13;;;11.43;;
57615;SDS011;43816;52.054;-9.494;2023-12-04T00:47:54;12.30;;;11.57;;
57615;SDS011;43816;52.054;-9.494;2023-12-04T00:48:04;12.20;;;11.50;;
57615;SDS011;43816;52.054;-9.494;2023-12-04T00:48:15;12.40;;;11.60;;
57615;SDS011;43816;52.054;-9.494;2023-12-04T00:48:25;12.45;;;11.65;;
57615;SDS011;43816;52.054;-9.494;2023-12-04T00:48:36;12.20;;;11.43;;
57615;SDS011;43816;52.054;-9.494;2023-12-04T00:48:46;12.32;;;11.57;;
57615;SDS011;43816;52.054;-9.494;2023-12-04T00:48:56;12.27;;;11.57;;
57615;SDS011;43816;52.054;-9.494;2023-12-04T00:49:07;12.70;;;11.90;;
57615;SDS011;43816;52.054;-9.494;2023-12-04T00:49:17;12.40;;;11.60;;
57615;SDS011;43816;52.054;-9.494;2023-12-04T00:49:27;12.30;;;11.50;;
57615;SDS011;43816;52.054;-9.494;2023-12-04T00:49:37;12.40;;;11.60;;
57615;SDS011;43816;52.054;-9.494;2023-12-04T00:49:48;12.82;;;12.02;;
57615;SDS011;43816;52.054;-9.494;2023-12-04T00:49:58;12.50;;;11.80;;
57615;SDS011;43816;52.054;-9.494;2023-12-04T00:50:10;12.47;;;11.77;;
57615;SDS011;43816;52.054;-9.494;2023-12-04T00:50:21;12.27;;;11.57;;
57615;SDS011;43816;52.054;-9.494;2023-12-04T00:50:31;12.23;;;11.53;;
57615;SDS011;43816;52.054;-9.494;2023-12-04T00:50:41;12.30;;;11.60;;
57615;SDS011;43816;52.054;-9.494;2023-12-04T00:50:52;12.75;;;11.95;;
57615;SDS011;43816;52.054;-9.494;2023-12-04T00:51:02;12.80;;;12.00;;
57615;SDS011;43816;52.054;-9.494;2023-12-04T00:51:12;12.52;;;11.73;;
57615;SDS011;43816;52.054;-9.494;2023-12-04T00:51:23;12.17;;;11.43;;
57615;SDS011;43816;52.054;-9.494;2023-12-04T00:51:36;12.23;;;11.43;;
57615;SDS011;43816;52.054;-9.494;2023-12-04T00:51:47;12.40;;;11.60;;
57615;SDS011;43816;52.054;-9.494;2023-12-04T00:51:58;12.67;;;11.87;;
57615;SDS011;43816;52.054;-9.494;2023-12-04T00:52:08;12.70;;;11.90;;
57615;SDS011;43816;52.054;-9.494;2023-12-04T00:52:18;12.50;;;11.80;;
57615;SDS011;43816;52.054;-9.494;2023-12-04T00:52:28;12.40;;;11.70;;
57615;SDS011;43816;52.054;-9.494;2023-12-04T00:52:39;12.30;;;11.60;;
57615;SDS011;43816;52.054;-9.494;2023-12-04T00:52:49;12.33;;;11.63;;
57615;SDS011;43816;52.054;-9.494;2023-12-04T00:52:59;12.40;;;11.70;;
57615;SDS011;43816;52.054;-9.494;2023-12-04T00:53:09;12.50;;;11.80;;
57615;SDS011;43816;52.054;-9.494;2023-12-04T00:53:20;12.90;;;12.20;;
57615;SDS011;43816;52.054;-9.494;2023-12-04T00:53:30;13.18;;;12.40;;
57615;SDS011;43816;52.054;-9.494;2023-12-04T00:53:40;13.37;;;12.57;;
57615;SDS011;43816;52.054;-9.494;2023-12-04T00:53:50;12.97;;;12.17;;
57615;SDS011;43816;52.054;-9.494;2023-12-04T00:54:01;12.57;;;11.88;;
57615;SDS011;43816;52.054;-9.494;2023-12-04T00:54:11;12.70;;;11.90;;
57615;SDS011;43816;52.054;-9.494;2023-12-04T00:54:21;12.63;;;11.93;;
57615;SDS011;43816;52.054;-9.494;2023-12-04T00:54:31;12.87;;;12.07;;
57615;SDS011;43816;52.054;-9.494;2023-12-04T00:54:42;12.52;;;11.82;;
57615;SDS011;43816;52.054;-9.494;2023-12-04T00:54:52;12.47;;;11.77;;
57615;SDS011;43816;52.054;-9.494;2023-12-04T00:55:02;12.40;;;11.70;;
57615;SDS011;43816;52.054;-9.494;2023-12-04T00:55:13;12.43;;;11.73;;
57615;SDS011;43816;52.054;-9.494;2023-12-04T00:55:23;12.60;;;11.90;;
57615;SDS011;43816;52.054;-9.494;2023-12-04T00:55:33;12.60;;;11.88;;
57615;SDS011;43816;52.054;-9.494;2023-12-04T00:55:44;12.67;;;11.87;;
57615;SDS011;43816;52.054;-9.494;2023-12-04T00:55:54;12.30;;;11.60;;
57615;SDS011;43816;52.054;-9.494;2023-12-04T00:56:04;12.13;;;11.43;;
57615;SDS011;43816;52.054;-9.494;2023-12-04T00:56:15;12.17;;;11.47;;
57615;SDS011;43816;52.054;-9.494;2023-12-04T00:56:25;12.68;;;11.93;;
57615;SDS011;43816;52.054;-9.494;2023-12-04T00:56:37;13.30;;;12.50;;
57615;SDS011;43816;52.054;-9.494;2023-12-04T00:56:48;13.15;;;12.35;;
57615;SDS011;43816;52.054;-9.494;2023-12-04T00:56:58;12.80;;;12.02;;
57615;SDS011;43816;52.054;-9.494;2023-12-04T00:57:08;12.50;;;11.80;;
57615;SDS011;43816;52.054;-9.494;2023-12-04T00:57:19;12.57;;;11.87;;
57615;SDS011;43816;52.054;-9.494;2023-12-04T00:57:29;12.93;;;12.13;;
57615;SDS011;43816;52.054;-9.494;2023-12-04T00:57:39;13.10;;;12.30;;
57615;SDS011;43816;52.054;-9.494;2023-12-04T00:57:49;13.23;;;12.43;;
57615;SDS011;43816;52.054;-9.494;2023-12-04T00:58:00;12.95;;;12.15;;
57615;SDS011;43816;52.054;-9.494;2023-12-04T00:58:10;12.70;;;11.90;;
57615;SDS011;43816;52.054;-9.494;2023-12-04T00:58:20;12.63;;;11.83;;
57615;SDS011;43816;52.054;-9.494;2023-12-04T00:58:31;13.07;;;12.27;;
57615;SDS011;43816;52.054;-9.494;2023-12-04T00:58:41;13.40;;;12.60;;
57615;SDS011;43816;52.054;-9.494;2023-12-04T00:58:51;13.20;;;12.40;;
57615;SDS011;43816;52.054;-9.494;2023-12-04T00:59:02;12.90;;;12.10;;
57615;SDS011;43816;52.054;-9.494;2023-12-04T00:59:12;12.67;;;11.87;;
57615;SDS011;43816;52.054;-9.494;2023-12-04T00:59:22;12.50;;;11.70;;
57615;SDS011;43816;52.054;-9.494;2023-12-04T00:59:33;12.38;;;11.68;;
57615;SDS011;43816;52.054;-9.494;2023-12-04T00:59:43;12.67;;;11.90;;
57615;SDS011;43816;52.054;-9.494;2023-12-04T00:59:53;12.63;;;11.90;;